Time;durP1;ratioP1;P1;durP2;ratioP2;P2;SDS_P1;SDS_P2;PMS_P1;PMS_P2;Temp;Humidity;BMP_temperature;BMP_pressure;BME280_temperature;BME280_humidity;BME280_pressure;Samples;Min_cycle;Max_cycle;Signal;HPM_P1;HPM_P2
2020/12/17 00:01:55;;;;;;;42.60;9.43;;;;;;;3.62;100.00;96680.00;5000046;28;20238;-72
2020/12/17 00:04:22;;;;;;;26.97;10.60;;;;;;;3.66;100.00;96668.38;5000350;28;20203;-72
2020/12/17 00:06:49;;;;;;;29.53;10.53;;;;;;;3.60;100.00;96678.47;4998270;28;20202;-72
2020/12/17 00:09:15;;;;;;;45.90;10.67;;;;;;;3.67;100.00;96684.84;4999366;28;20214;-72
2020/12/17 00:11:41;;;;;;;24.23;9.13;;;;;;;3.64;100.00;96680.72;5000038;28;21448;-72
2020/12/17 00:14:07;;;;;;;45.90;10.13;;;;;;;3.47;100.00;96669.16;4999702;28;20209;-72
2020/12/17 00:16:33;;;;;;;27.57;9.47;;;;;;;3.40;100.00;96662.78;4998864;28;20230;-72
2020/12/17 00:18:59;;;;;;;27.57;10.53;;;;;;;3.54;100.00;96654.69;4999440;28;20663;-72
2020/12/17 00:21:26;;;;;;;30.60;11.03;;;;;;;3.58;100.00;96649.13;4999874;28;20226;-72
2020/12/17 00:23:52;;;;;;;43.40;13.87;;;;;;;3.38;100.00;96652.50;4999129;28;20218;-72
2020/12/17 00:26:18;;;;;;;31.07;12.57;;;;;;;3.54;100.00;96649.47;4999251;28;20249;-72
2020/12/17 00:28:44;;;;;;;30.43;11.03;;;;;;;3.49;100.00;96662.03;4999278;28;20210;-72
2020/12/17 00:31:10;;;;;;;25.73;10.23;;;;;;;3.57;100.00;96655.28;4999189;28;20226;-72
2020/12/17 00:33:36;;;;;;;32.60;12.50;;;;;;;3.61;100.00;96653.25;4999613;28;20195;-72
2020/12/17 00:36:02;;;;;;;24.70;10.07;;;;;;;3.70;100.00;96653.31;4998832;28;20226;-72
2020/12/17 00:38:29;;;;;;;20.77;9.17;;;;;;;3.74;100.00;96650.34;4999270;28;20202;-72
2020/12/17 00:40:55;;;;;;;19.67;9.43;;;;;;;3.76;100.00;96643.22;4998774;28;20233;-72
2020/12/17 00:43:21;;;;;;;20.20;9.80;;;;;;;3.62;100.00;96650.50;4999717;28;20238;-72
2020/12/17 00:45:47;;;;;;;21.63;9.63;;;;;;;3.72;100.00;96652.25;4998510;28;20762;-72
2020/12/17 00:48:13;;;;;;;19.83;9.70;;;;;;;3.76;100.00;96640.59;4999157;28;20397;-72
2020/12/17 00:50:39;;;;;;;27.90;9.90;;;;;;;3.61;100.00;96650.66;4998623;28;20725;-72
2020/12/17 00:53:05;;;;;;;22.07;9.37;;;;;;;3.61;100.00;96648.03;4998966;28;20297;-72
2020/12/17 00:55:32;;;;;;;21.40;8.47;;;;;;;3.55;100.00;96644.13;4997593;28;20640;-72
2020/12/17 00:57:58;;;;;;;38.20;9.70;;;;;;;3.47;100.00;96656.16;4998828;28;20206;-72
2020/12/17 01:00:24;;;;;;;17.97;10.00;;;;;;;3.34;100.00;96645.06;4998820;28;20619;-72
2020/12/17 01:02:50;;;;;;;20.73;9.70;;;;;;;3.43;100.00;96649.53;4998432;28;20297;-72
2020/12/17 01:05:16;;;;;;;17.00;9.00;;;;;;;3.48;100.00;96643.00;4997669;28;20243;-72
2020/12/17 01:07:42;;;;;;;32.40;9.33;;;;;;;3.40;100.00;96641.94;4998895;28;20301;-72
2020/12/17 01:10:08;;;;;;;16.23;9.60;;;;;;;3.47;100.00;96645.72;4997794;28;21110;-72
2020/12/17 01:12:35;;;;;;;32.67;9.70;;;;;;;3.40;100.00;96660.19;4998532;28;20220;-73
2020/12/17 01:15:01;;;;;;;19.20;9.23;;;;;;;3.42;100.00;96676.53;4998121;28;20205;-72
2020/12/17 01:17:27;;;;;;;21.50;9.43;;;;;;;3.56;100.00;96671.03;4997790;28;20293;-72
2020/12/17 01:19:53;;;;;;;16.87;9.13;;;;;;;3.65;100.00;96671.94;4998633;28;20230;-72
2020/12/17 01:22:19;;;;;;;27.63;8.83;;;;;;;3.41;100.00;96672.25;4998246;28;20202;-72
2020/12/17 01:24:45;;;;;;;24.97;8.33;;;;;;;3.45;100.00;96669.31;4998817;28;20214;-72
2020/12/17 01:27:11;;;;;;;19.93;9.13;;;;;;;3.34;100.00;96681.53;4997650;28;20202;-72
2020/12/17 01:29:38;;;;;;;20.03;9.63;;;;;;;3.37;100.00;96691.69;4998441;28;20218;-72
2020/12/17 01:32:04;;;;;;;15.17;8.77;;;;;;;3.56;100.00;96689.28;4998586;28;20206;-72
2020/12/17 01:34:30;;;;;;;18.13;8.97;;;;;;;3.42;100.00;96692.16;4998178;28;20730;-72
2020/12/17 01:36:56;;;;;;;17.77;9.77;;;;;;;3.40;100.00;96688.84;4997010;28;20226;-72
2020/12/17 01:39:23;;;;;;;22.07;9.57;;;;;;;3.35;100.00;96685.78;4998581;28;20561;-72
2020/12/17 01:41:49;;;;;;;22.00;9.13;;;;;;;3.36;100.00;96687.44;4997476;28;20223;-72
2020/12/17 01:44:15;;;;;;;16.03;9.17;;;;;;;3.49;100.00;96686.34;4998367;28;20257;-72
2020/12/17 01:46:42;;;;;;;18.30;9.37;;;;;;;3.58;100.00;96684.75;4997339;28;20202;-72
2020/12/17 01:49:08;;;;;;;24.07;10.10;;;;;;;3.55;100.00;96680.59;4997918;28;20777;-72
2020/12/17 01:51:34;;;;;;;35.37;9.77;;;;;;;3.48;100.00;96674.25;4997299;28;21173;-72
2020/12/17 01:54:00;;;;;;;26.80;9.30;;;;;;;3.51;100.00;96668.78;4998207;28;20293;-72
2020/12/17 01:56:27;;;;;;;24.00;9.30;;;;;;;3.44;100.00;96670.25;4997102;28;20602;-72
2020/12/17 01:58:58;;;;;;;18.47;9.43;;;;;;;3.40;100.00;96676.66;4997858;28;21162;-72
2020/12/17 02:01:27;;;;;;;19.37;9.43;;;;;;;3.41;100.00;96687.88;4997428;28;20250;-72
2020/12/17 02:03:55;;;;;;;22.90;9.30;;;;;;;3.26;100.00;96674.31;4997951;28;20206;-72
2020/12/17 02:06:21;;;;;;;18.93;9.47;;;;;;;3.28;100.00;96676.81;4996390;28;20258;-72
2020/12/17 02:08:50;;;;;;;15.70;8.97;;;;;;;3.27;100.00;96685.56;4998036;28;20214;-72
2020/12/17 02:11:16;;;;;;;15.40;9.10;;;;;;;3.27;100.00;96689.00;4997423;28;20226;-72
2020/12/17 02:13:42;;;;;;;19.47;9.60;;;;;;;3.25;100.00;96677.06;4997273;28;20206;-72
2020/12/17 02:16:08;;;;;;;17.70;9.80;;;;;;;3.34;100.00;96692.75;4996923;28;20233;-72
2020/12/17 02:18:34;;;;;;;17.10;9.10;;;;;;;3.42;100.00;96686.94;4997610;28;20214;-72
2020/12/17 02:21:02;;;;;;;18.77;9.33;;;;;;;3.37;100.00;96687.28;4996492;28;20218;-72
2020/12/17 02:23:28;;;;;;;18.60;9.20;;;;;;;3.49;100.00;96685.50;4997770;28;20203;-72
2020/12/17 02:25:55;;;;;;;13.90;8.33;;;;;;;3.44;100.00;96683.28;4996923;28;20202;-72
2020/12/17 02:28:21;;;;;;;25.67;9.33;;;;;;;3.38;100.00;96690.75;4996564;28;20448;-72
2020/12/17 02:30:48;;;;;;;27.03;9.83;;;;;;;3.37;100.00;96687.28;4997379;28;20231;-72
2020/12/17 02:33:14;;;;;;;21.20;10.90;;;;;;;3.42;100.00;96686.94;4997387;28;20257;-72
2020/12/17 02:35:40;;;;;;;20.60;10.50;;;;;;;3.32;100.00;96688.63;4996793;28;20237;-72
2020/12/17 02:38:07;;;;;;;26.67;10.27;;;;;;;3.34;100.00;96686.75;4997379;28;20202;-72
2020/12/17 02:40:34;;;;;;;31.53;10.93;;;;;;;3.29;100.00;96683.66;4997347;28;20253;-72
2020/12/17 02:43:01;;;;;;;25.33;9.53;;;;;;;3.26;100.00;96689.09;4996686;28;20280;-72
2020/12/17 02:45:27;;;;;;;23.67;9.97;;;;;;;3.29;100.00;96683.66;4996610;28;20249;-72
2020/12/17 02:47:53;;;;;;;20.63;10.90;;;;;;;3.34;100.00;96691.94;4996682;28;20224;-72
2020/12/17 02:50:19;;;;;;;30.43;10.50;;;;;;;3.19;100.00;96700.97;4997450;28;20284;-72
2020/12/17 02:52:46;;;;;;;20.80;10.20;;;;;;;3.29;100.00;96699.28;4996721;28;20202;-72
2020/12/17 02:55:12;;;;;;;19.47;9.53;;;;;;;3.26;100.00;96697.75;4996518;28;20202;-72
2020/12/17 02:57:38;;;;;;;17.20;10.00;;;;;;;3.11;100.00;96693.75;4997606;28;20211;-72
2020/12/17 03:00:06;;;;;;;16.27;9.67;;;;;;;3.13;100.00;96707.50;4996762;28;20728;-72
2020/12/17 03:02:33;;;;;;;18.00;9.53;;;;;;;3.19;100.00;96704.38;4996496;28;20207;-72
2020/12/17 03:04:59;;;;;;;17.97;10.00;;;;;;;3.22;100.00;96704.16;4996883;28;20203;-72
2020/12/17 03:07:25;;;;;;;25.80;10.47;;;;;;;3.20;100.00;96700.84;4997056;28;20202;-72
2020/12/17 03:09:51;;;;;;;26.73;10.53;;;;;;;3.15;100.00;96702.16;4996692;28;20226;-72
2020/12/17 03:12:17;;;;;;;27.77;10.60;;;;;;;3.11;100.00;96706.78;4996807;28;20245;-72
2020/12/17 03:14:43;;;;;;;21.80;10.90;;;;;;;3.08;100.00;96716.59;4996920;28;20210;-72
2020/12/17 03:17:10;;;;;;;27.63;11.30;;;;;;;3.14;100.00;96710.91;4995669;28;20229;-72
2020/12/17 03:19:36;;;;;;;27.03;11.40;;;;;;;3.21;100.00;96706.91;4996635;28;20211;-72
2020/12/17 03:22:02;;;;;;;23.53;11.50;;;;;;;3.32;100.00;96699.88;4997119;28;20756;-72
2020/12/17 03:24:28;;;;;;;26.57;12.30;;;;;;;3.27;100.00;96694.22;4996794;28;20203;-72
2020/12/17 03:26:54;;;;;;;29.00;12.00;;;;;;;3.30;100.00;96691.34;4996061;28;20230;-73
2020/12/17 03:29:20;;;;;;;26.10;11.47;;;;;;;3.37;100.00;96684.69;4996665;28;20209;-72
2020/12/17 03:31:46;;;;;;;29.63;11.63;;;;;;;3.41;100.00;96698.31;4996575;28;20582;-72
2020/12/17 03:34:13;;;;;;;21.90;11.93;;;;;;;3.40;100.00;96707.06;4997091;28;20285;-72
2020/12/17 03:36:39;;;;;;;27.63;11.80;;;;;;;3.46;100.00;96717.00;4995774;28;20275;-72
2020/12/17 03:39:05;;;;;;;22.07;11.80;;;;;;;3.58;100.00;96711.66;4993702;28;21076;-72
2020/12/17 03:41:31;;;;;;;26.90;11.50;;;;;;;3.56;100.00;96704.91;5000313;28;20218;-72
2020/12/17 03:43:57;;;;;;;26.90;11.40;;;;;;;3.49;100.00;96695.91;5000124;28;20213;-72
2020/12/17 03:46:23;;;;;;;29.37;11.17;;;;;;;3.52;100.00;96698.28;4999354;28;20294;-72
2020/12/17 03:48:49;;;;;;;22.20;10.57;;;;;;;3.44;100.00;96703.28;4999950;28;20289;-72
2020/12/17 03:51:16;;;;;;;19.63;10.17;;;;;;;3.49;100.00;96699.34;5000696;28;20248;-72
2020/12/17 03:53:41;;;;;;;26.17;10.83;;;;;;;3.48;100.00;96700.31;5000049;28;20214;-72
2020/12/17 03:56:07;;;;;;;19.20;10.17;;;;;;;3.42;100.00;96705.19;4998352;28;20262;-72
2020/12/17 03:58:33;;;;;;;32.10;13.60;;;;;;;3.43;100.00;96702.44;5000843;28;20247;-72
2020/12/17 04:00:59;;;;;;;40.67;17.03;;;;;;;3.46;100.00;96706.59;4999641;28;20309;-72
2020/12/17 04:03:25;;;;;;;38.53;14.43;;;;;;;3.58;100.00;96716.00;4999813;28;20287;-72
2020/12/17 04:05:51;;;;;;;25.13;11.23;;;;;;;3.50;100.00;96708.00;4999036;28;20330;-72
2020/12/17 04:08:18;;;;;;;20.03;11.03;;;;;;;3.62;100.00;96707.03;5000240;28;20250;-72
2020/12/17 04:10:44;;;;;;;21.67;10.47;;;;;;;3.67;100.00;96710.91;4999353;28;20229;-72
2020/12/17 04:13:10;;;;;;;20.23;10.57;;;;;;;3.65;100.00;96715.41;5000044;28;20306;-72
2020/12/17 04:15:36;;;;;;;20.63;10.50;;;;;;;3.66;100.00;96725.69;4998653;28;20772;-72
2020/12/17 04:18:02;;;;;;;19.27;11.03;;;;;;;3.44;100.00;96718.91;5000009;28;20237;-72
2020/12/17 04:20:28;;;;;;;21.47;11.43;;;;;;;3.31;100.00;96720.81;4999293;28;20226;-72
2020/12/17 04:22:54;;;;;;;26.23;11.10;;;;;;;3.38;100.00;96714.19;4999624;28;20293;-72
2020/12/17 04:25:21;;;;;;;22.27;10.40;;;;;;;3.46;100.00;96719.59;4998570;28;20202;-72
2020/12/17 04:27:47;;;;;;;19.23;10.77;;;;;;;3.37;100.00;96723.75;4999515;28;20207;-73
2020/12/17 04:30:13;;;;;;;21.33;10.97;;;;;;;3.24;100.00;96728.28;4999228;28;20230;-72
2020/12/17 04:32:39;;;;;;;22.80;10.80;;;;;;;3.22;100.00;96726.75;4999529;28;20308;-72
2020/12/17 04:35:05;;;;;;;16.27;10.17;;;;;;;3.34;100.00;96734.44;4998117;28;20249;-72
2020/12/17 04:37:31;;;;;;;20.07;10.60;;;;;;;3.44;100.00;96740.56;4999239;28;20254;-72
2020/12/17 04:39:57;;;;;;;23.03;11.63;;;;;;;3.39;100.00;96741.91;4999272;28;20741;-72
2020/12/17 04:42:24;;;;;;;26.70;10.13;;;;;;;3.36;100.00;96744.72;4999029;28;20256;-72
2020/12/17 04:44:52;;;;;;;21.47;10.23;;;;;;;3.31;100.00;96739.03;4999419;28;20261;-72
2020/12/17 04:47:19;;;;;;;20.10;10.57;;;;;;;3.36;100.00;96742.13;4998455;28;20993;-72
2020/12/17 04:49:49;;;;;;;21.70;10.20;;;;;;;3.47;100.00;96740.31;4998900;28;20207;-72
2020/12/17 04:52:15;;;;;;;22.37;11.27;;;;;;;3.46;100.00;96743.06;4998839;28;20198;-72
2020/12/17 04:54:41;;;;;;;19.33;11.27;;;;;;;3.43;100.00;96749.34;4998700;28;20213;-72
2020/12/17 04:57:09;;;;;;;26.27;10.80;;;;;;;3.37;100.00;96742.00;4998214;28;20229;-72
2020/12/17 04:59:41;;;;;;;17.27;10.57;;;;;;;3.51;100.00;96744.34;4999350;28;20195;-72
2020/12/17 05:02:07;;;;;;;17.37;10.13;;;;;;;3.57;100.00;96745.66;4999078;28;20576;-72
2020/12/17 05:04:36;;;;;;;25.73;11.77;;;;;;;3.56;100.00;96743.97;4998639;28;20217;-72
2020/12/17 05:07:05;;;;;;;24.53;10.60;;;;;;;3.56;100.00;96743.97;4997450;28;20213;-72
2020/12/17 05:09:31;;;;;;;20.93;10.63;;;;;;;3.55;100.00;96740.53;4999116;28;20342;-72
2020/12/17 05:11:57;;;;;;;34.27;17.00;;;;;;;3.45;100.00;96744.00;4998099;28;20206;-72
2020/12/17 05:14:23;;;;;;;28.17;14.50;;;;;;;3.51;100.00;96752.16;4998010;28;20207;-72
2020/12/17 05:16:50;;;;;;;37.20;16.20;;;;;;;3.48;100.00;96746.38;4997529;28;20709;-72
2020/12/17 05:19:16;;;;;;;57.17;23.70;;;;;;;3.47;100.00;96744.72;4997962;28;20206;-72
2020/12/17 05:21:42;;;;;;;77.50;28.43;;;;;;;3.44;100.00;96750.19;4997497;28;20230;-72
2020/12/17 05:24:08;;;;;;;76.33;27.97;;;;;;;3.44;100.00;96750.19;4998446;28;20198;-72
2020/12/17 05:26:35;;;;;;;67.80;28.17;;;;;;;3.51;100.00;96753.94;4997772;28;20474;-72
2020/12/17 05:29:02;;;;;;;27.60;12.93;;;;;;;3.41;100.00;96756.47;4997828;28;20253;-72
2020/12/17 05:31:31;;;;;;;17.83;8.07;;;;;;;3.22;100.00;96756.25;4998371;28;20260;-72
2020/12/17 05:34:02;;;;;;;20.80;10.87;;;;;;;3.41;100.00;96760.81;4998487;28;20206;-72
2020/12/17 05:36:30;;;;;;;24.07;13.13;;;;;;;3.37;100.00;96762.00;4997162;28;20225;-72
2020/12/17 05:39:04;;;;;;;20.07;11.30;;;;;;;3.30;100.00;96761.66;4998296;28;20198;-72
2020/12/17 05:41:30;;;;;;;17.67;9.40;;;;;;;3.40;100.00;96762.59;4998338;28;20229;-72
2020/12/17 05:44:07;;;;;;;17.00;9.63;;;;;;;3.41;100.00;96766.88;4997890;28;20205;-72
2020/12/17 05:46:35;;;;;;;20.00;10.33;;;;;;;3.31;100.00;96771.16;4997493;28;20405;-72
2020/12/17 05:49:09;;;;;;;24.20;10.67;;;;;;;3.41;100.00;96781.66;4998050;28;20203;-72
2020/12/17 05:51:36;;;;;;;23.47;10.37;;;;;;;3.49;100.00;96780.13;4997457;28;20234;-72
2020/12/17 05:54:02;;;;;;;19.40;10.53;;;;;;;3.56;100.00;96796.09;4997821;28;20207;-72
2020/12/17 05:56:29;;;;;;;20.00;10.27;;;;;;;3.51;100.00;96801.66;4997381;28;20227;-72
2020/12/17 05:59:02;;;;;;;19.53;10.33;;;;;;;3.50;100.00;96804.38;4997407;28;20301;-72
2020/12/17 06:01:28;;;;;;;23.47;11.90;;;;;;;3.48;100.00;96798.47;4997948;28;20218;-72
2020/12/17 06:03:54;;;;;;;19.93;10.57;;;;;;;3.51;100.00;96798.22;4996527;28;21155;-72
2020/12/17 06:06:21;;;;;;;21.00;10.93;;;;;;;3.52;100.00;96794.69;4996849;28;20268;-72
2020/12/17 06:08:51;;;;;;;27.53;11.67;;;;;;;3.43;100.00;96801.44;4997167;28;20676;-73
2020/12/17 06:11:22;;;;;;;26.70;12.53;;;;;;;3.46;100.00;96795.16;4998031;28;20233;-72
2020/12/17 06:13:53;;;;;;;22.77;11.20;;;;;;;3.46;100.00;96797.75;4997567;28;20210;-72
2020/12/17 06:16:21;;;;;;;25.37;13.80;;;;;;;3.59;100.00;96799.28;4997079;28;20230;-72
2020/12/17 06:18:52;;;;;;;29.53;15.67;;;;;;;3.62;100.00;96803.44;4997871;28;20207;-72
2020/12/17 06:21:19;;;;;;;24.43;12.83;;;;;;;3.63;100.00;96814.53;4998012;28;20233;-72
2020/12/17 06:23:46;;;;;;;25.03;12.27;;;;;;;3.71;100.00;96813.94;4996805;28;20238;-72
2020/12/17 06:26:12;;;;;;;23.23;12.07;;;;;;;3.79;100.00;96806.34;4997278;28;20206;-72
2020/12/17 06:28:45;;;;;;;26.83;13.53;;;;;;;3.84;100.00;96802.41;4997713;28;20209;-72
2020/12/17 06:31:15;;;;;;;24.20;12.37;;;;;;;3.63;100.00;96814.53;4997027;28;20260;-72
2020/12/17 06:33:42;;;;;;;25.07;13.00;;;;;;;3.49;100.00;96818.34;4997228;28;20202;-73
2020/12/17 06:36:16;;;;;;;25.67;12.23;;;;;;;3.43;100.00;96806.63;4997137;28;20237;-73
2020/12/17 06:38:44;;;;;;;32.03;14.50;;;;;;;3.39;100.00;96807.00;4996905;28;20206;-73
2020/12/17 06:41:19;;;;;;;31.23;13.77;;;;;;;3.42;100.00;96815.41;4997850;28;20241;-73
2020/12/17 06:43:46;;;;;;;31.07;15.00;;;;;;;3.44;100.00;96823.13;4996704;28;20214;-73
2020/12/17 06:46:33;;;;;;;32.00;14.63;;;;;;;3.36;100.00;96817.66;4996281;28;20736;-72
2020/12/17 06:49:00;;;;;;;31.63;14.97;;;;;;;3.43;100.00;96819.66;4997036;28;20237;-73
2020/12/17 06:51:32;;;;;;;32.40;15.13;;;;;;;3.46;100.00;96822.03;4997336;28;21275;-72
2020/12/17 06:53:59;;;;;;;30.63;13.90;;;;;;;3.41;100.00;96816.38;4997279;28;20199;-72
2020/12/17 06:56:26;;;;;;;28.70;13.23;;;;;;;3.39;100.00;96823.47;4996832;28;20234;-72
2020/12/17 06:59:17;;;;;;;31.97;13.70;;;;;;;3.40;100.00;96819.06;4997393;28;20202;-72
2020/12/17 07:01:44;;;;;;;30.33;14.80;;;;;;;3.48;100.00;96825.34;4997289;28;20242;-73
2020/12/17 07:04:11;;;;;;;29.33;13.20;;;;;;;3.48;100.00;96819.31;4997276;28;20206;-73
2020/12/17 07:06:37;;;;;;;29.60;13.00;;;;;;;3.46;100.00;96829.84;4996975;28;20210;-72
2020/12/17 07:09:04;;;;;;;30.13;14.43;;;;;;;3.43;100.00;96837.09;4996828;28;20835;-72
2020/12/17 07:11:42;;;;;;;29.80;14.73;;;;;;;3.48;100.00;96845.38;4996830;28;20280;-72
2020/12/17 07:14:11;;;;;;;30.40;14.83;;;;;;;3.47;100.00;96851.53;4996898;28;20241;-75
2020/12/17 07:16:37;;;;;;;24.60;11.13;;;;;;;3.50;100.00;96846.06;4999912;28;20288;-72
2020/12/17 07:19:37;;;;;;;27.43;13.03;;;;;;;3.48;100.00;96850.59;5001014;28;20210;-72
2020/12/17 07:22:05;;;;;;;30.80;13.57;;;;;;;3.46;100.00;96848.06;4965060;28;20210;-72
2020/12/17 07:24:37;;;;;;;28.97;12.67;;;;;;;3.49;100.00;96849.59;5000430;28;20280;-72
2020/12/17 07:27:09;;;;;;;29.90;13.90;;;;;;;3.51;100.00;96848.53;4999900;28;20214;-72
2020/12/17 07:29:47;;;;;;;29.53;13.90;;;;;;;3.57;100.00;96842.84;5001244;28;20202;-72
2020/12/17 07:32:24;;;;;;;26.07;12.07;;;;;;;3.58;100.00;96846.28;5000559;28;20266;-72
2020/12/17 07:34:51;;;;;;;36.23;17.77;;;;;;;3.62;100.00;96851.16;5000715;28;20879;-72
2020/12/17 07:37:38;;;;;;;42.17;18.03;;;;;;;3.69;100.00;96855.75;5000126;28;20218;-72
2020/12/17 07:40:15;;;;;;;33.57;15.67;;;;;;;3.73;100.00;96858.97;5000331;28;20629;-72
2020/12/17 07:42:42;;;;;;;31.30;14.80;;;;;;;3.82;100.00;96853.03;5001506;28;20217;-72
2020/12/17 07:45:08;;;;;;;33.10;15.43;;;;;;;3.74;100.00;96858.84;4999448;28;20202;-72
2020/12/17 07:47:34;;;;;;;30.97;15.60;;;;;;;3.78;100.00;96865.47;5000435;28;20198;-72
2020/12/17 07:50:00;;;;;;;31.57;14.37;;;;;;;3.85;100.00;96877.06;5000553;28;21378;-72
2020/12/17 07:52:31;;;;;;;25.50;13.03;;;;;;;3.78;100.00;96875.03;5000448;28;20206;-73
2020/12/17 07:54:57;;;;;;;26.80;13.10;;;;;;;3.79;100.00;96882.78;4999843;28;20207;-72
2020/12/17 07:57:23;;;;;;;29.13;14.40;;;;;;;3.82;100.00;96885.13;4999647;28;20744;-72
2020/12/17 07:59:50;;;;;;;28.87;13.30;;;;;;;3.83;100.00;96894.59;5000132;28;20210;-72
2020/12/17 08:02:16;;;;;;;31.50;15.37;;;;;;;3.83;100.00;96892.00;5000108;28;20203;-72
2020/12/17 08:04:47;;;;;;;29.23;14.23;;;;;;;3.88;100.00;96892.47;5000636;28;20202;-73
2020/12/17 08:07:13;;;;;;;31.90;14.53;;;;;;;3.86;100.00;96888.31;4999079;28;20256;-73
2020/12/17 08:09:39;;;;;;;29.27;13.87;;;;;;;3.91;100.00;96899.22;5000372;28;20203;-73
2020/12/17 08:12:09;;;;;;;28.47;13.97;;;;;;;3.88;100.00;96887.25;4999730;28;20203;-73
2020/12/17 08:14:35;;;;;;;27.77;13.50;;;;;;;3.89;100.00;96899.31;5000150;28;20218;-73
2020/12/17 08:17:06;;;;;;;31.13;13.10;;;;;;;3.85;100.00;96895.31;4998907;28;20218;-73
2020/12/17 08:19:32;;;;;;;29.13;14.33;;;;;;;3.92;100.00;96909.53;4999978;28;20238;-73
2020/12/17 08:21:59;;;;;;;28.17;11.83;;;;;;;4.82;100.00;96898.56;4999185;28;20565;-72
2020/12/17 08:24:25;;;;;;;26.83;13.67;;;;;;;4.59;100.00;96909.22;4999757;28;20199;-73
2020/12/17 08:26:53;;;;;;;25.23;13.03;;;;;;;4.54;100.00;96908.75;4997937;28;20226;-73
2020/12/17 08:29:20;;;;;;;27.07;13.63;;;;;;;4.35;100.00;96918.19;5000106;28;20290;-72
2020/12/17 08:31:46;;;;;;;28.47;14.20;;;;;;;4.28;100.00;96924.88;4998885;28;20227;-73
2020/12/17 08:34:13;;;;;;;27.13;13.07;;;;;;;4.17;100.00;96913.63;4999553;28;20261;-73
2020/12/17 08:36:39;;;;;;;28.53;13.00;;;;;;;4.16;100.00;96920.59;4998524;28;20222;-73
2020/12/17 08:39:07;;;;;;;32.13;13.27;;;;;;;4.14;100.00;96919.91;4999641;28;20260;-73
2020/12/17 08:41:37;;;;;;;28.93;13.47;;;;;;;4.06;100.00;96919.69;4999261;28;20230;-73
2020/12/17 08:44:05;;;;;;;31.90;14.30;;;;;;;4.11;100.00;96920.16;4998951;28;20222;-73
2020/12/17 08:46:34;;;;;;;28.53;13.87;;;;;;;4.13;100.00;96928.69;4998718;28;20199;-73
2020/12/17 08:49:03;;;;;;;30.17;14.50;;;;;;;4.10;100.00;96925.47;4996535;28;20199;-73
2020/12/17 08:51:32;;;;;;;34.73;15.73;;;;;;;4.14;100.00;96935.56;4996991;28;20241;-72
2020/12/17 08:53:58;;;;;;;29.40;13.13;;;;;;;4.16;100.00;96938.84;4998072;28;20199;-72
2020/12/17 08:56:24;;;;;;;29.87;14.17;;;;;;;4.16;100.00;96936.25;4997399;28;20265;-72
2020/12/17 08:58:52;;;;;;;31.33;14.43;;;;;;;4.14;100.00;96943.38;4998097;28;20314;-73
2020/12/17 09:01:23;;;;;;;27.77;12.97;;;;;;;4.11;100.00;96938.41;4996883;28;20233;-73
2020/12/17 09:03:50;;;;;;;22.73;9.87;;;;;;;4.15;100.00;96952.88;4997024;28;20710;-72
2020/12/17 09:06:22;;;;;;;28.03;12.57;;;;;;;4.11;100.00;96945.41;4997278;28;20198;-73
2020/12/17 09:08:49;;;;;;;25.53;11.40;;;;;;;4.14;100.00;96946.00;4998045;28;20682;-72
2020/12/17 09:11:32;;;;;;;29.13;13.07;;;;;;;4.20;100.00;96955.94;4998479;28;20276;-73
2020/12/17 09:14:02;;;;;;;30.83;14.00;;;;;;;4.25;100.00;96956.38;4997932;28;21046;-73
2020/12/17 09:16:29;;;;;;;26.37;12.87;;;;;;;4.27;100.00;96952.72;4997417;28;20226;-73
2020/12/17 09:18:57;;;;;;;26.73;13.70;;;;;;;4.38;100.00;96949.28;4998140;28;20753;-73
2020/12/17 09:21:23;;;;;;;28.40;12.93;;;;;;;4.40;100.00;96956.03;4998400;28;20224;-73
2020/12/17 09:23:57;;;;;;;26.53;12.30;;;;;;;4.39;100.00;96956.13;4997883;28;20230;-73
2020/12/17 09:26:24;;;;;;;26.40;12.63;;;;;;;4.35;100.00;96959.94;4998664;28;20202;-72
2020/12/17 09:28:52;;;;;;;19.73;9.23;;;;;;;4.37;100.00;96948.41;4997552;28;20257;-73
2020/12/17 09:31:29;;;;;;;33.63;16.03;;;;;;;4.50;100.00;96956.09;4998797;28;20586;-73
2020/12/17 09:34:07;;;;;;;24.57;11.97;;;;;;;4.45;100.00;96960.88;4998400;28;20210;-73
2020/12/17 09:36:33;;;;;;;25.10;11.83;;;;;;;4.55;100.00;96961.78;4997835;28;20320;-72
2020/12/17 09:39:03;;;;;;;23.53;11.83;;;;;;;4.45;100.00;96961.69;4997806;28;20688;-73
2020/12/17 09:41:28;;;;;;;23.53;11.40;;;;;;;4.43;100.00;96960.16;4997902;28;20229;-73
2020/12/17 09:43:54;;;;;;;19.70;10.10;;;;;;;4.40;100.00;96957.78;4998578;28;20238;-73
2020/12/17 09:46:20;;;;;;;25.00;12.90;;;;;;;4.44;100.00;96967.03;4997406;28;21178;-73
2020/12/17 09:48:46;;;;;;;26.33;12.40;;;;;;;4.48;100.00;96971.91;4997997;28;20211;-73
2020/12/17 09:51:12;;;;;;;25.47;13.87;;;;;;;4.55;100.00;96977.44;4998242;28;20232;-72
2020/12/17 09:53:40;;;;;;;31.07;12.63;;;;;;;4.60;100.00;96977.91;4997649;28;20310;-73
2020/12/17 09:56:09;;;;;;;24.80;11.70;;;;;;;4.56;100.00;96968.69;4997278;28;20760;-73
2020/12/17 09:58:35;;;;;;;21.60;9.00;;;;;;;4.53;100.00;96968.91;4997590;28;21288;-73
2020/12/17 10:01:01;;;;;;;24.40;12.00;;;;;;;4.57;100.00;96972.91;4998193;28;20378;-73
2020/12/17 10:03:27;;;;;;;22.77;10.37;;;;;;;4.53;100.00;96971.50;4997545;28;20666;-72
2020/12/17 10:05:53;;;;;;;28.70;12.60;;;;;;;4.37;100.00;96973.69;4997469;28;20269;-73
2020/12/17 10:08:19;;;;;;;22.87;11.53;;;;;;;4.41;100.00;96975.94;4997477;28;20210;-72
2020/12/17 10:10:45;;;;;;;27.07;12.53;;;;;;;4.44;100.00;96967.88;4997878;28;20231;-73
2020/12/17 10:13:12;;;;;;;26.07;13.17;;;;;;;4.50;100.00;96966.53;4997920;28;20198;-72
2020/12/17 10:15:40;;;;;;;26.60;12.37;;;;;;;4.56;100.00;96976.50;4997065;28;20209;-72
2020/12/17 10:18:06;;;;;;;24.50;12.37;;;;;;;4.57;100.00;96971.16;4997408;28;20229;-73
2020/12/17 10:20:32;;;;;;;28.03;13.73;;;;;;;4.62;100.00;96962.94;4997871;28;20230;-73
2020/12/17 10:22:58;;;;;;;26.43;12.13;;;;;;;4.65;100.00;96965.31;4997581;28;20205;-72
2020/12/17 10:25:24;;;;;;;25.40;13.00;;;;;;;4.61;100.00;96964.72;4996864;28;20198;-72
2020/12/17 10:27:52;;;;;;;25.40;12.93;;;;;;;4.70;100.00;96976.19;4997851;28;20618;-72
2020/12/17 10:30:19;;;;;;;23.83;12.27;;;;;;;4.76;100.00;96973.94;4997169;28;20229;-73
2020/12/17 10:32:45;;;;;;;27.20;13.67;;;;;;;4.78;100.00;96969.41;4997622;28;20203;-72
2020/12/17 10:35:11;;;;;;;23.30;11.40;;;;;;;4.75;100.00;96969.69;4996642;28;20230;-73
2020/12/17 10:37:39;;;;;;;24.67;11.23;;;;;;;4.86;100.00;96962.63;4997649;28;20233;-73
2020/12/17 10:40:05;;;;;;;36.83;16.77;;;;;;;4.98;100.00;96964.22;4997712;28;20218;-72
2020/12/17 10:42:31;;;;;;;36.77;16.03;;;;;;;5.12;100.00;96965.72;4997213;28;20199;-72
2020/12/17 10:44:56;;;;;;;29.10;14.80;;;;;;;5.19;100.00;96964.25;4997149;28;20199;-73
2020/12/17 10:47:23;;;;;;;23.20;12.10;;;;;;;5.15;100.00;96962.84;4996740;28;20199;-72
2020/12/17 10:49:49;;;;;;;25.10;12.03;;;;;;;5.24;100.00;96959.47;4997884;28;20206;-73
2020/12/17 10:52:15;;;;;;;24.63;12.47;;;;;;;5.27;100.00;96970.50;5000901;28;20687;-73
2020/12/17 10:54:41;;;;;;;22.70;10.93;;;;;;;5.18;100.00;96963.44;5001198;28;20206;-72
2020/12/17 10:57:07;;;;;;;24.13;12.07;;;;;;;5.09;100.00;96964.19;5000576;28;20234;-73
2020/12/17 10:59:33;;;;;;;24.20;12.60;;;;;;;5.16;100.00;96970.53;5000677;28;20202;-73
2020/12/17 11:02:00;;;;;;;23.07;11.53;;;;;;;5.20;100.00;96971.13;5001575;28;20265;-73
2020/12/17 11:04:27;;;;;;;20.40;9.53;;;;;;;5.11;100.00;96970.09;5001147;28;20198;-72
2020/12/17 11:06:55;;;;;;;21.97;11.33;;;;;;;4.98;100.00;96982.50;5000409;28;20221;-73
2020/12/17 11:09:21;;;;;;;22.90;10.90;;;;;;;4.95;100.00;96977.53;5000572;28;21092;-73
2020/12/17 11:11:50;;;;;;;22.13;10.93;;;;;;;4.96;100.00;96989.66;5001903;28;20261;-72
2020/12/17 11:14:16;;;;;;;23.23;11.77;;;;;;;4.95;100.00;96984.53;5001179;28;20209;-72
2020/12/17 11:16:41;;;;;;;20.43;10.97;;;;;;;4.93;100.00;96984.66;4999880;28;20230;-72
2020/12/17 11:19:07;;;;;;;23.33;12.30;;;;;;;4.95;100.00;96972.31;5000913;28;20202;-74
2020/12/17 11:21:34;;;;;;;29.03;13.37;;;;;;;5.00;100.00;96985.84;5002274;28;20222;-73